Weather at Mc Gee Airport

Public forecast

Using degrees Fahrenheit for public forecast. Weather courtesy of forecast.io.

Closest aviation weather report (METAR) to Mc Gee Airport

Closest report is Aurora State Airport, 3.7 nm (6.9 km) ENE. Retrieved 2021/06/21 09:53 UTC (38 minutes ago):

KUAO 210953Z AUTO 01005KT 10SM CLR 21/13 A2983 RMK AO2 SLP098 T02110128

Closest aviation forecast (TAF) to Mc Gee Airport

Closest forecast is Aurora State Airport, 3.7 nm (6.9 km) ENE. Retrieved 2021/06/21 06:20 UTC (4 hours ago):

TAF KUAO 210520Z 2106/2206 36007KT P6SM SKC FM210800 05004KT P6SM SKC FM212200 33005KT P6SM SKC